Time;durP1;ratioP1;P1;durP2;ratioP2;P2;SDS_P1;SDS_P2;PMS_P1;PMS_P2;Temp;Humidity;BMP_temperature;BMP_pressure;BME280_temperature;BME280_humidity;BME280_pressure;Samples;Min_cycle;Max_cycle;Signal;HPM_P1;HPM_P2
2023/03/01 00:00:12;;;;;;;54.83;29.33;;;;;;;-2.26;86.96;102624.50;6096354;23;20221;-69
2023/03/01 00:02:48;;;;;;;47.53;27.10;;;;;;;-2.25;87.54;102626.22;6096219;23;20249;-69
2023/03/01 00:05:25;;;;;;;46.40;26.58;;;;;;;-2.32;88.16;102624.81;6096390;23;20166;-70
2023/03/01 00:08:05;;;;;;;49.35;29.05;;;;;;;-2.29;88.03;102622.03;6096182;23;20201;-67
2023/03/01 00:11:04;;;;;;;52.97;29.90;;;;;;;-2.36;88.05;102612.66;6072737;23;20611;-69
2023/03/01 00:13:41;;;;;;;40.92;25.63;;;;;;;-2.44;88.91;102609.53;6096042;23;20177;-70
2023/03/01 00:16:18;;;;;;;39.92;24.67;;;;;;;-2.42;89.22;102606.81;6097771;23;20209;-67
2023/03/01 00:18:58;;;;;;;37.35;23.67;;;;;;;-2.32;89.86;102608.03;6096255;23;20627;-70
2023/03/01 00:21:33;;;;;;;32.88;21.20;;;;;;;-2.01;89.96;102597.59;6096174;23;20252;-68
2023/03/01 00:24:08;;;;;;;41.50;25.35;;;;;;;-2.20;88.77;102603.00;6097381;23;20202;-67
2023/03/01 00:26:40;;;;;;;31.75;19.75;;;;;;;-2.31;89.22;102594.72;6095545;23;20198;-70
2023/03/01 00:29:15;;;;;;;39.50;24.13;;;;;;;-2.42;89.45;102594.38;6072087;23;20221;-69
2023/03/01 00:31:52;;;;;;;31.80;23.55;;;;;;;-2.46;90.01;102595.47;6072165;23;20174;-68
2023/03/01 00:34:34;;;;;;;41.97;24.27;;;;;;;-2.50;90.98;102598.38;6071947;23;20198;-69
2023/03/01 00:37:20;;;;;;;40.90;25.38;;;;;;;-2.25;92.25;102594.41;6070782;23;20204;-69
2023/03/01 00:39:58;;;;;;;32.08;21.90;;;;;;;-2.15;91.35;102599.25;6071873;23;20169;-70
2023/03/01 00:42:35;;;;;;;40.88;23.60;;;;;;;-2.10;90.63;102598.06;6098209;23;20704;-69
2023/03/01 00:48:50;;;;;;;31.55;18.85;;;;;;;-2.07;89.86;102594.38;6097658;23;20163;-69
2023/03/01 00:51:28;;;;;;;37.08;21.42;;;;;;;-1.97;89.50;102601.78;6071996;23;20332;-68
2023/03/01 00:54:09;;;;;;;29.95;20.02;;;;;;;-1.82;89.12;102606.28;6049441;23;20216;-69
2023/03/01 00:56:42;;;;;;;33.95;21.70;;;;;;;-1.81;88.42;102593.88;6095921;23;20204;-69
2023/03/01 00:59:14;;;;;;;36.72;22.08;;;;;;;-1.94;88.19;102595.47;6072463;23;20575;-69
2023/03/01 01:01:48;;;;;;;32.97;22.33;;;;;;;-1.83;88.69;102585.13;6072710;23;20181;-69
2023/03/01 01:04:23;;;;;;;39.45;23.80;;;;;;;-1.86;89.34;102585.31;6090782;23;20288;-70
2023/03/01 01:07:00;;;;;;;35.28;23.45;;;;;;;-2.01;88.66;102575.50;6095134;23;20578;-68
2023/03/01 01:09:35;;;;;;;33.15;19.10;;;;;;;-1.99;89.69;102584.25;6095785;23;20170;-69
2023/03/01 01:12:19;;;;;;;31.70;22.48;;;;;;;-2.13;90.03;102576.16;6097815;23;20162;-69
2023/03/01 01:14:56;;;;;;;37.13;24.15;;;;;;;-2.29;89.89;102574.28;6095818;23;20487;-70
2023/03/01 01:17:27;;;;;;;36.35;22.60;;;;;;;-2.26;89.86;102574.13;6071691;23;20194;-70
2023/03/01 01:19:59;;;;;;;33.35;25.38;;;;;;;-2.02;88.96;102571.13;6097644;23;20155;-69
2023/03/01 01:22:37;;;;;;;48.35;26.85;;;;;;;-2.04;88.06;102575.66;6072443;23;20173;-70
2023/03/01 01:25:15;;;;;;;37.47;24.00;;;;;;;-2.16;87.60;102557.72;6072547;23;20254;-69
2023/03/01 01:27:47;;;;;;;36.50;23.33;;;;;;;-2.19;87.97;102556.09;6073192;23;20194;-69
2023/03/01 01:30:22;;;;;;;43.05;25.08;;;;;;;-2.40;88.37;102552.75;6050496;23;20261;-69
2023/03/01 01:32:56;;;;;;;37.80;22.33;;;;;;;-2.47;89.02;102548.69;6072523;23;20519;-69
2023/03/01 01:35:28;;;;;;;32.80;22.23;;;;;;;-2.54;89.13;102542.00;6097783;23;20657;-69
2023/03/01 01:38:06;;;;;;;31.73;20.73;;;;;;;-2.49;89.21;102537.31;6097759;23;20194;-69
2023/03/01 01:40:48;;;;;;;30.65;20.45;;;;;;;-2.28;88.52;102538.88;6050024;23;20566;-70
2023/03/01 01:43:24;;;;;;;37.60;19.75;;;;;;;-2.17;86.78;102537.44;6096934;23;20197;-69
2023/03/01 01:46:12;;;;;;;23.52;17.50;;;;;;;-2.17;86.42;102532.13;6098293;23;20173;-70
2023/03/01 01:48:59;;;;;;;34.55;16.85;;;;;;;-2.29;86.25;102534.50;6077210;23;20266;-70
2023/03/01 01:51:54;;;;;;;30.77;18.65;;;;;;;-2.45;86.08;102533.56;6072225;23;20169;-69
2023/03/01 01:54:33;;;;;;;24.75;16.35;;;;;;;-2.33;86.41;102535.63;6073319;23;20170;-70
2023/03/01 01:57:10;;;;;;;18.73;14.35;;;;;;;-2.31;85.41;102531.06;6074292;23;20199;-68
2023/03/01 01:59:45;;;;;;;28.58;16.35;;;;;;;-2.26;84.98;102539.63;6099144;23;20234;-70
2023/03/01 02:02:21;;;;;;;23.75;14.40;;;;;;;-2.37;84.62;102533.19;6049101;23;20272;-69
2023/03/01 02:05:05;;;;;;;17.38;13.57;;;;;;;-2.48;84.57;102533.75;6098047;23;20295;-69
2023/03/01 02:07:44;;;;;;;20.05;11.77;;;;;;;-2.64;85.39;102538.97;6073252;23;20244;-67
2023/03/01 02:10:20;;;;;;;16.25;11.82;;;;;;;-2.78;86.14;102548.53;6097661;23;20173;-69
2023/03/01 02:12:54;;;;;;;15.68;10.18;;;;;;;-2.61;85.98;102543.22;6097133;23;20172;-68
2023/03/01 02:15:33;;;;;;;15.32;11.00;;;;;;;-2.55;85.15;102537.63;6094301;23;20173;-69
2023/03/01 02:18:13;;;;;;;18.55;10.43;;;;;;;-2.57;84.87;102543.97;6094555;23;20279;-68
2023/03/01 02:21:27;;;;;;;11.82;9.73;;;;;;;-2.33;85.38;102548.00;6096861;23;20178;-68
2023/03/01 02:24:18;;;;;;;15.18;10.57;;;;;;;-2.18;84.50;102549.00;6070209;23;20538;-70
2023/03/01 02:26:56;;;;;;;13.82;10.02;;;;;;;-2.43;85.67;102546.75;6094734;23;20280;-69
2023/03/01 02:29:38;;;;;;;20.00;10.88;;;;;;;-2.65;87.58;102552.28;6095048;23;20197;-68
2023/03/01 02:32:12;;;;;;;17.70;10.95;;;;;;;-2.79;87.87;102554.75;6070534;23;20261;-69
2023/03/01 02:34:49;;;;;;;20.27;12.77;;;;;;;-2.78;88.46;102551.19;6071797;23;20489;-69
2023/03/01 02:37:25;;;;;;;20.60;10.43;;;;;;;-2.58;88.41;102558.13;6095077;23;20193;-68
2023/03/01 02:40:06;;;;;;;18.55;12.05;;;;;;;-2.71;88.61;102557.91;6071680;23;20181;-68
2023/03/01 02:42:53;;;;;;;16.00;10.43;;;;;;;-2.77;88.93;102550.25;6096639;23;20192;-70
2023/03/01 02:45:32;;;;;;;23.23;13.13;;;;;;;-2.69;89.22;102550.72;6068053;23;20194;-70
2023/03/01 02:48:08;;;;;;;21.48;11.93;;;;;;;-2.79;90.06;102544.16;6094917;23;20201;-68
2023/03/01 02:51:00;;;;;;;23.02;14.05;;;;;;;-2.47;89.70;102543.38;6096615;23;20161;-68
2023/03/01 02:53:46;;;;;;;23.73;12.40;;;;;;;-2.26;88.40;102541.44;6070875;23;20177;-69
2023/03/01 02:56:22;;;;;;;18.42;11.15;;;;;;;-2.46;89.01;102531.00;6070898;23;20519;-69
2023/03/01 02:59:00;;;;;;;16.80;11.63;;;;;;;-2.37;88.90;102531.38;6094822;23;20177;-69
2023/03/01 03:01:39;;;;;;;20.48;12.45;;;;;;;-2.32;88.99;102529.34;6094851;23;20256;-70
2023/03/01 03:04:20;;;;;;;19.63;13.45;;;;;;;-2.38;88.73;102519.09;6095976;23;20534;-69
2023/03/01 03:06:54;;;;;;;19.17;11.35;;;;;;;-2.60;88.80;102523.75;6072774;23;20681;-69
2023/03/01 03:09:33;;;;;;;17.80;11.23;;;;;;;-2.76;88.83;102528.13;6072674;23;20240;-69
2023/03/01 03:12:07;;;;;;;22.55;13.18;;;;;;;-2.84;90.23;102527.63;6098408;23;20562;-68
2023/03/01 03:14:54;;;;;;;19.13;13.07;;;;;;;-2.73;90.36;102522.66;6096343;23;20180;-68
2023/03/01 03:17:37;;;;;;;20.75;14.68;;;;;;;-2.60;90.69;102526.41;6071979;23;20657;-68
2023/03/01 03:20:11;;;;;;;20.23;14.18;;;;;;;-2.41;91.33;102529.81;6072303;23;20212;-69
2023/03/01 03:22:44;;;;;;;20.63;14.13;;;;;;;-2.60;90.94;102521.09;6096600;23;20174;-68
2023/03/01 03:25:18;;;;;;;21.10;13.63;;;;;;;-2.43;90.70;102523.75;6072639;23;20260;-69
2023/03/01 03:27:57;;;;;;;15.95;11.32;;;;;;;-2.55;90.26;102521.72;6096394;23;20280;-69
2023/03/01 03:30:33;;;;;;;21.67;13.77;;;;;;;-2.60;90.58;102513.16;6076205;23;20403;-69
2023/03/01 03:33:08;;;;;;;17.63;13.85;;;;;;;-2.71;90.82;102518.16;6100977;23;20177;-71
2023/03/01 03:35:47;;;;;;;21.90;13.82;;;;;;;-2.48;91.64;102509.88;6099707;23;20666;-69
2023/03/01 03:38:21;;;;;;;22.23;12.15;;;;;;;-2.74;91.39;102502.41;6073351;23;20208;-68
2023/03/01 03:41:05;;;;;;;19.77;14.00;;;;;;;-2.84;91.59;102503.78;6101156;23;20170;-68
2023/03/01 03:43:39;;;;;;;16.25;12.95;;;;;;;-2.79;92.71;102496.47;6097581;23;20174;-69
2023/03/01 03:46:14;;;;;;;18.50;14.57;;;;;;;-2.70;92.16;102494.22;6098583;23;20158;-68
2023/03/01 03:48:52;;;;;;;21.23;13.25;;;;;;;-2.71;91.75;102495.13;6093579;23;20252;-69
2023/03/01 03:51:26;;;;;;;20.80;15.02;;;;;;;-2.62;91.43;102493.84;6073049;23;20216;-68
2023/03/01 03:54:00;;;;;;;20.42;12.90;;;;;;;-2.74;92.06;102489.16;6073114;23;20224;-70
2023/03/01 03:59:22;;;;;;;25.23;15.45;;;;;;;-2.76;92.47;102480.44;6071857;23;20172;-69
2023/03/01 04:01:55;;;;;;;20.58;15.15;;;;;;;-2.71;91.90;102481.88;6096657;23;20550;-68
2023/03/01 04:04:40;;;;;;;23.85;15.25;;;;;;;-2.73;92.52;102485.56;6098053;23;20193;-69
2023/03/01 04:07:19;;;;;;;25.23;14.45;;;;;;;-2.86;92.51;102479.19;6074030;23;20228;-67
2023/03/01 04:09:53;;;;;;;18.48;14.07;;;;;;;-2.82;93.49;102486.03;6096569;23;20174;-68
2023/03/01 04:12:26;;;;;;;19.90;14.38;;;;;;;-2.94;93.70;102486.63;6072033;23;20184;-68
2023/03/01 04:14:59;;;;;;;30.00;16.17;;;;;;;-3.05;94.27;102494.28;6071576;23;20588;-68
2023/03/01 04:17:33;;;;;;;23.23;15.27;;;;;;;-2.96;93.71;102483.22;6096010;23;20194;-69
2023/03/01 04:20:24;;;;;;;38.55;20.13;;;;;;;-3.14;93.68;102484.97;6072093;23;20647;-69
2023/03/01 04:23:10;;;;;;;25.13;14.65;;;;;;;-3.12;93.80;102486.63;6048302;23;20256;-69
2023/03/01 04:25:49;;;;;;;28.75;14.55;;;;;;;-2.80;93.45;102481.50;6076357;23;20203;-69
2023/03/01 04:28:24;;;;;;;29.77;16.90;;;;;;;-2.62;93.16;102483.22;6095913;23;20224;-69
2023/03/01 04:31:12;;;;;;;27.05;17.45;;;;;;;-2.69;92.46;102481.81;6096178;23;20200;-68
2023/03/01 04:33:49;;;;;;;22.35;14.85;;;;;;;-2.69;92.83;102481.81;6101618;23;20154;-70
2023/03/01 04:36:43;;;;;;;20.33;15.23;;;;;;;-2.74;93.09;102486.50;6109183;23;20182;-71
2023/03/01 04:39:16;;;;;;;21.92;14.50;;;;;;;-2.87;93.51;102478.31;6098367;23;20174;-69
2023/03/01 04:41:54;;;;;;;25.17;17.10;;;;;;;-2.77;93.42;102476.94;6073781;23;20170;-69
2023/03/01 04:44:38;;;;;;;28.20;16.23;;;;;;;-3.06;93.61;102480.19;6096070;23;20295;-69
2023/03/01 04:47:17;;;;;;;25.83;17.45;;;;;;;-3.21;93.78;102484.44;6095932;23;20288;-70
2023/03/01 04:49:59;;;;;;;19.08;13.13;;;;;;;-3.22;95.10;102482.72;6098421;23;20630;-69
2023/03/01 04:52:44;;;;;;;16.95;13.18;;;;;;;-3.01;95.39;102482.59;6096900;23;20185;-71
2023/03/01 04:55:20;;;;;;;26.70;15.77;;;;;;;-2.83;94.46;102484.31;6098867;23;20499;-69
2023/03/01 04:57:57;;;;;;;21.65;15.23;;;;;;;-2.79;94.15;102485.88;6100340;23;20198;-69
2023/03/01 05:00:31;;;;;;;28.73;17.58;;;;;;;-2.74;93.02;102483.84;6098386;23;20200;-70
2023/03/01 05:03:11;;;;;;;24.58;15.15;;;;;;;-2.96;92.54;102484.09;6097216;23;20244;-68
2023/03/01 05:05:52;;;;;;;21.67;15.82;;;;;;;-3.07;92.80;102481.09;6096116;23;20193;-69
2023/03/01 05:08:28;;;;;;;20.08;13.27;;;;;;;-3.00;92.86;102481.69;6095988;23;20192;-69
2023/03/01 05:11:12;;;;;;;16.40;11.98;;;;;;;-2.84;91.85;102477.28;6096032;23;20225;-69
2023/03/01 05:13:49;;;;;;;18.83;12.25;;;;;;;-2.98;91.62;102477.13;6096104;23;20175;-68
2023/03/01 05:16:27;;;;;;;24.50;13.18;;;;;;;-3.16;92.03;102470.97;6095874;23;20179;-69
2023/03/01 05:18:59;;;;;;;22.75;13.35;;;;;;;-3.00;92.61;102468.44;6095763;23;20178;-68
2023/03/01 05:22:01;;;;;;;23.05;14.45;;;;;;;-2.94;93.00;102471.59;6095541;23;20177;-69
2023/03/01 05:24:38;;;;;;;19.65;13.00;;;;;;;-3.11;93.70;102472.47;6102316;23;20169;-69
2023/03/01 05:27:13;;;;;;;19.67;13.70;;;;;;;-2.96;94.21;102467.34;6097744;23;20200;-69
2023/03/01 05:29:52;;;;;;;22.35;13.88;;;;;;;-2.84;93.09;102472.00;6073720;23;20204;-70
2023/03/01 05:32:25;;;;;;;17.65;12.00;;;;;;;-3.01;93.31;102466.72;6071752;23;20172;-68
2023/03/01 05:35:00;;;;;;;24.63;14.25;;;;;;;-2.99;93.39;102468.34;6071430;23;20185;-69
2023/03/01 05:37:36;;;;;;;22.15;13.93;;;;;;;-3.03;93.76;102465.91;6071487;23;20276;-69
2023/03/01 05:40:19;;;;;;;16.38;12.02;;;;;;;-2.99;94.37;102463.03;6095966;23;20176;-70
2023/03/01 05:42:57;;;;;;;23.17;13.95;;;;;;;-2.99;94.07;102464.81;6094516;23;20173;-69
2023/03/01 05:45:29;;;;;;;16.70;12.43;;;;;;;-2.88;94.27;102459.84;6071144;23;20189;-69
2023/03/01 05:48:05;;;;;;;23.65;15.40;;;;;;;-2.81;93.91;102453.31;6095026;23;20197;-69
2023/03/01 05:50:47;;;;;;;23.15;14.00;;;;;;;-2.84;93.63;102450.81;6095278;23;20260;-69
2023/03/01 05:53:22;;;;;;;22.88;12.57;;;;;;;-2.98;93.92;102459.47;6071178;23;20212;-69
2023/03/01 05:55:56;;;;;;;20.17;13.02;;;;;;;-3.11;94.13;102467.16;6047947;23;20666;-68
2023/03/01 05:58:33;;;;;;;18.20;10.52;;;;;;;-3.17;94.89;102463.97;6072141;23;20197;-68
2023/03/01 06:01:06;;;;;;;25.98;15.30;;;;;;;-3.31;95.03;102459.34;6071459;23;20173;-70
2023/03/01 06:03:38;;;;;;;22.85;14.05;;;;;;;-2.81;94.55;102467.38;6071328;23;20178;-68
2023/03/01 06:06:13;;;;;;;22.70;13.73;;;;;;;-2.71;94.02;102467.81;6095463;23;20729;-68
2023/03/01 06:08:44;;;;;;;19.30;12.77;;;;;;;-2.81;93.32;102463.91;6071371;23;20177;-69
2023/03/01 06:11:24;;;;;;;19.48;13.20;;;;;;;-2.96;93.82;102467.34;6071266;23;20173;-68
2023/03/01 06:13:57;;;;;;;21.38;12.98;;;;;;;-2.79;94.11;102468.19;6096961;23;20558;-69
2023/03/01 06:16:32;;;;;;;26.60;16.15;;;;;;;-2.63;93.85;102466.47;6071300;23;20565;-69
2023/03/01 06:19:08;;;;;;;23.48;16.35;;;;;;;-2.50;93.18;102466.69;6095020;23;20173;-68
2023/03/01 06:21:43;;;;;;;19.30;14.07;;;;;;;-2.50;92.70;102469.34;6071463;23;20165;-69
2023/03/01 06:24:16;;;;;;;18.98;12.85;;;;;;;-2.44;92.46;102469.03;6097402;23;20488;-69
2023/03/01 06:26:57;;;;;;;23.90;15.20;;;;;;;-2.47;92.67;102469.16;6088415;23;20200;-70
2023/03/01 06:29:29;;;;;;;19.65;13.48;;;;;;;-2.24;91.97;102467.97;6095020;23;20184;-69
2023/03/01 06:32:17;;;;;;;18.42;12.75;;;;;;;-2.36;91.82;102465.94;6075075;23;20177;-69
2023/03/01 06:34:58;;;;;;;21.95;16.38;;;;;;;-2.37;92.02;102470.41;6097378;23;20506;-69
2023/03/01 06:37:47;;;;;;;30.80;17.42;;;;;;;-2.34;92.43;102477.34;6095395;23;20258;-68
2023/03/01 06:40:21;;;;;;;22.77;14.68;;;;;;;-2.26;92.37;102476.00;6094836;23;20686;-69
2023/03/01 06:42:57;;;;;;;20.67;14.07;;;;;;;-2.29;92.40;102480.63;6094338;23;20539;-69
2023/03/01 06:45:32;;;;;;;21.63;14.60;;;;;;;-2.20;92.48;102486.28;6094737;23;20174;-67
2023/03/01 06:48:09;;;;;;;26.05;17.20;;;;;;;-2.08;92.61;102483.94;6094945;23;20197;-68
2023/03/01 06:50:46;;;;;;;27.30;16.70;;;;;;;-1.71;91.16;102482.78;6095478;23;20197;-69
2023/03/01 06:54:11;;;;;;;19.42;15.13;;;;;;;-1.66;90.73;102481.59;6096670;23;20169;-68
2023/03/01 06:56:49;;;;;;;18.88;15.75;;;;;;;-1.59;90.25;102477.63;6094740;23;20654;-68
2023/03/01 06:59:34;;;;;;;27.85;14.52;;;;;;;-1.55;89.52;102481.81;6096983;23;20165;-69
2023/03/01 07:02:13;;;;;;;22.77;15.85;;;;;;;-1.44;88.98;102481.22;6094280;23;20518;-70
2023/03/01 07:04:45;;;;;;;18.83;15.48;;;;;;;-1.43;88.61;102481.16;6095079;23;20202;-69
2023/03/01 07:07:22;;;;;;;22.58;15.63;;;;;;;-1.22;88.80;102476.41;6095965;23;20283;-67
2023/03/01 07:09:58;;;;;;;29.75;17.05;;;;;;;-1.18;88.31;102485.94;6095872;23;20262;-68
2023/03/01 07:12:32;;;;;;;28.02;17.83;;;;;;;-1.12;87.67;102487.38;6094787;23;20619;-67
2023/03/01 07:15:15;;;;;;;28.75;20.60;;;;;;;-0.85;87.13;102485.75;6095115;23;20252;-68
2023/03/01 07:17:49;;;;;;;24.88;18.63;;;;;;;-0.62;85.08;102482.59;6094839;23;20519;-68
2023/03/01 07:20:31;;;;;;;27.90;18.95;;;;;;;-0.49;84.25;102485.38;6095068;23;20184;-68
2023/03/01 07:23:02;;;;;;;33.03;18.83;;;;;;;-0.35;83.66;102489.88;6094243;23;20178;-68
2023/03/01 07:25:33;;;;;;;33.55;19.92;;;;;;;-0.39;83.66;102485.69;6094496;23;20177;-68
2023/03/01 07:28:07;;;;;;;32.63;19.45;;;;;;;-0.01;81.79;102492.19;6094494;23;20244;-67
2023/03/01 07:30:42;;;;;;;29.38;18.38;;;;;;;-0.04;81.50;102487.03;6094799;23;20646;-68
2023/03/01 07:33:14;;;;;;;25.08;17.35;;;;;;;0.05;80.94;102491.78;6098716;23;20178;-67
2023/03/01 07:35:49;;;;;;;24.65;18.55;;;;;;;0.26;80.20;102489.56;6092006;23;20171;-67
2023/03/01 07:38:22;;;;;;;36.45;19.33;;;;;;;0.46;79.83;102494.50;6096539;23;20191;-68
2023/03/01 07:40:56;;;;;;;23.42;17.80;;;;;;;0.56;78.92;102481.44;6074779;23;20163;-67
2023/03/01 07:43:29;;;;;;;26.67;16.15;;;;;;;0.60;78.68;102474.97;6070736;23;20499;-69
2023/03/01 07:46:05;;;;;;;25.90;16.40;;;;;;;0.78;77.27;102484.41;6095793;23;20567;-68
2023/03/01 07:48:41;;;;;;;24.98;15.60;;;;;;;0.92;75.92;102487.03;6070944;23;20539;-66
2023/03/01 07:51:13;;;;;;;24.40;15.93;;;;;;;1.03;74.97;102487.16;6072776;23;20245;-67
2023/03/01 07:53:50;;;;;;;46.83;32.20;;;;;;;1.24;73.77;102485.75;6098592;23;20202;-68
2023/03/01 07:56:25;;;;;;;21.70;15.95;;;;;;;1.35;73.45;102485.03;6097881;23;20182;-67
2023/03/01 07:58:55;;;;;;;39.03;34.40;;;;;;;1.35;72.24;102489.50;6073837;23;20198;-67
2023/03/01 08:01:30;;;;;;;25.65;22.52;;;;;;;1.45;73.59;102482.59;6072849;23;20522;-67
2023/03/01 08:04:06;;;;;;;23.73;17.48;;;;;;;1.66;70.85;102489.97;6072804;23;20278;-67
2023/03/01 08:06:40;;;;;;;25.10;15.60;;;;;;;1.78;70.34;102482.94;6071467;23;20285;-67
2023/03/01 08:09:14;;;;;;;22.10;15.30;;;;;;;1.89;70.34;102488.34;6096527;23;20642;-68
2023/03/01 08:11:45;;;;;;;19.05;12.88;;;;;;;1.99;69.87;102483.22;6072221;23;20518;-68
2023/03/01 08:14:18;;;;;;;18.65;13.18;;;;;;;2.14;70.00;102487.47;6096145;23;20180;-67
2023/03/01 08:16:54;;;;;;;15.77;13.35;;;;;;;2.24;69.24;102475.19;6072804;23;20193;-67
2023/03/01 08:19:28;;;;;;;16.33;11.18;;;;;;;2.37;68.07;102472.50;6095317;23;20525;-67
2023/03/01 08:22:03;;;;;;;14.00;11.20;;;;;;;2.70;64.91;102472.72;6097535;23;20551;-68
2023/03/01 08:24:39;;;;;;;17.42;10.02;;;;;;;2.80;63.59;102473.75;6097297;23;20179;-69
2023/03/01 08:27:18;;;;;;;19.58;9.80;;;;;;;2.92;62.99;102467.47;6095492;23;20286;-69
2023/03/01 08:29:58;;;;;;;12.45;7.80;;;;;;;3.09;62.19;102463.53;6097402;23;20219;-68
2023/03/01 08:32:36;;;;;;;12.10;9.10;;;;;;;3.14;62.50;102460.50;6071563;23;20175;-68
2023/03/01 08:35:08;;;;;;;18.30;9.45;;;;;;;3.15;62.12;102456.88;6071940;23;20182;-69
2023/03/01 08:37:42;;;;;;;13.27;10.65;;;;;;;3.31;61.86;102449.38;6071491;23;20216;-69
2023/03/01 08:40:15;;;;;;;12.90;9.27;;;;;;;3.54;60.60;102453.78;6096981;23;20162;-70
2023/03/01 08:42:53;;;;;;;13.10;8.50;;;;;;;3.84;60.30;102456.75;6048870;23;20231;-68
2023/03/01 08:45:25;;;;;;;14.82;10.07;;;;;;;3.86;59.56;102453.97;6071630;23;20190;-69
2023/03/01 08:48:01;;;;;;;12.50;9.35;;;;;;;3.91;59.40;102463.34;6071152;23;20591;-68
2023/03/01 08:50:44;;;;;;;12.45;9.68;;;;;;;4.03;59.09;102460.66;6072689;23;20631;-68
2023/03/01 08:53:18;;;;;;;16.23;10.23;;;;;;;4.10;58.01;102461.91;6071481;23;20172;-68
2023/03/01 08:55:49;;;;;;;16.52;10.55;;;;;;;4.02;58.54;102458.97;6071615;23;20177;-68
2023/03/01 08:58:22;;;;;;;15.90;9.98;;;;;;;4.21;58.39;102460.03;6095177;23;20636;-68
2023/03/01 09:00:56;;;;;;;17.08;10.77;;;;;;;4.35;57.62;102446.41;6071835;23;20197;-66
2023/03/01 09:03:30;;;;;;;20.90;10.13;;;;;;;4.51;56.76;102446.00;6095552;23;20172;-69
2023/03/01 09:06:05;;;;;;;13.27;9.80;;;;;;;4.36;57.38;102440.03;6095608;23;20171;-68
2023/03/01 09:08:41;;;;;;;18.02;11.38;;;;;;;4.64;56.91;102441.34;6071253;23;20191;-69
2023/03/01 09:11:15;;;;;;;10.80;9.43;;;;;;;4.58;56.00;102441.00;6097212;23;20207;-68
2023/03/01 09:13:47;;;;;;;11.88;9.35;;;;;;;4.57;56.04;102444.66;6070736;23;20182;-68
2023/03/01 09:16:21;;;;;;;11.35;7.95;;;;;;;4.65;56.36;102437.66;6096942;23;20497;-68
2023/03/01 09:18:56;;;;;;;12.05;8.95;;;;;;;4.70;55.44;102442.66;6071057;23;20170;-67
2023/03/01 09:21:29;;;;;;;14.27;8.45;;;;;;;4.75;55.42;102435.94;6071564;23;20175;-69
2023/03/01 09:24:14;;;;;;;12.50;9.98;;;;;;;4.84;55.77;102444.22;6071836;23;20172;-67
2023/03/01 09:26:47;;;;;;;14.82;8.35;;;;;;;4.95;54.91;102438.78;6072962;23;20223;-69
2023/03/01 09:29:20;;;;;;;13.13;9.75;;;;;;;5.21;54.12;102441.00;6097196;23;20158;-68
2023/03/01 09:31:54;;;;;;;11.00;8.68;;;;;;;5.23;53.35;102438.16;6095754;23;20199;-68
2023/03/01 09:34:29;;;;;;;9.55;7.30;;;;;;;5.38;53.23;102431.50;6072734;23;20175;-68
2023/03/01 09:37:02;;;;;;;8.57;5.93;;;;;;;5.44;52.07;102436.34;6097638;23;20200;-67
2023/03/01 09:39:34;;;;;;;9.80;7.35;;;;;;;5.38;51.50;102436.84;6096073;23;20219;-69
2023/03/01 09:42:06;;;;;;;6.82;5.00;;;;;;;5.35;51.62;102439.81;6096259;23;20187;-69
2023/03/01 09:44:45;;;;;;;13.05;6.63;;;;;;;5.44;51.11;102441.72;6097818;23;20163;-69
2023/03/01 09:47:21;;;;;;;10.25;5.30;;;;;;;5.44;50.81;102427.44;6096042;23;20706;-65
2023/03/01 09:50:05;;;;;;;9.35;5.30;;;;;;;5.68;50.55;102431.53;6096257;23;20254;-66
2023/03/01 09:52:41;;;;;;;5.53;4.25;;;;;;;5.99;49.71;102427.06;6096122;23;20249;-68
2023/03/01 09:55:18;;;;;;;8.73;4.60;;;;;;;6.14;49.34;102429.38;6095716;23;20199;-73
2023/03/01 09:57:55;;;;;;;9.65;6.18;;;;;;;6.19;48.40;102436.06;6095633;23;20192;-71
2023/03/01 10:00:41;;;;;;;16.95;5.78;;;;;;;6.01;48.85;102424.22;6099937;23;20176;-71
2023/03/01 10:03:23;;;;;;;5.25;3.85;;;;;;;6.25;48.30;102431.94;6075356;23;20177;-72
2023/03/01 10:06:10;;;;;;;6.20;4.22;;;;;;;6.20;47.90;102435.03;6098371;23;20175;-70
2023/03/01 10:09:12;;;;;;;57.58;28.95;;;;;;;6.14;47.23;102434.75;6095742;23;20538;-72
2023/03/01 10:12:01;;;;;;;19.33;11.95;;;;;;;5.89;47.16;102436.06;6095665;23;20184;-72
2023/03/01 10:15:02;;;;;;;8.25;4.15;;;;;;;5.97;47.78;102436.22;6094746;23;20173;-72
2023/03/01 10:17:45;;;;;;;5.22;3.72;;;;;;;6.10;47.79;102442.22;6094673;23;20541;-71
2023/03/01 10:20:27;;;;;;;12.80;9.10;;;;;;;6.20;47.33;102435.03;6092841;23;20177;-71
2023/03/01 10:23:20;;;;;;;5.55;3.72;;;;;;;6.22;46.85;102432.22;6097011;23;20161;-71
2023/03/01 10:26:44;;;;;;;3.90;3.35;;;;;;;6.31;46.65;102429.56;6094916;23;20244;-72
2023/03/01 10:29:31;;;;;;;6.07;3.60;;;;;;;6.38;46.11;102428.06;6071114;23;20189;-70
2023/03/01 10:32:11;;;;;;;9.38;3.92;;;;;;;6.19;46.19;102417.25;6071395;23;20187;-71
2023/03/01 10:34:51;;;;;;;5.53;3.95;;;;;;;6.13;44.90;102428.53;6072032;23;20172;-70
2023/03/01 10:38:02;;;;;;;4.03;3.30;;;;;;;6.29;46.35;102423.50;6096796;23;20185;-71
2023/03/01 10:43:57;;;;;;;7.53;4.97;;;;;;;6.27;47.41;102414.72;6065844;23;20181;-72
2023/03/01 10:46:32;;;;;;;5.78;4.00;;;;;;;6.75;45.27;102403.19;6097756;23;20436;-71
2023/03/01 10:49:28;;;;;;;9.43;7.88;;;;;;;6.66;43.87;102393.25;6075581;23;20189;-71
2023/03/01 10:52:20;;;;;;;3.47;2.92;;;;;;;6.80;43.06;102399.06;6089651;23;20150;-70
2023/03/01 10:54:58;;;;;;;4.45;3.00;;;;;;;6.64;42.53;102392.53;6092314;23;20172;-72
2023/03/01 10:57:42;;;;;;;13.18;5.75;;;;;;;6.80;43.35;102392.84;6090768;23;20252;-71
2023/03/01 11:00:27;;;;;;;5.15;3.17;;;;;;;7.01;42.40;102392.69;6073746;23;20167;-72
2023/03/01 11:03:15;;;;;;;7.68;6.95;;;;;;;7.15;41.16;102385.03;6072320;23;20217;-71
2023/03/01 11:06:02;;;;;;;7.07;2.70;;;;;;;7.13;40.19;102380.78;6072048;23;20208;-71
2023/03/01 11:08:44;;;;;;;4.47;3.05;;;;;;;7.17;39.63;102383.03;6072274;23;20189;-73
2023/03/01 11:11:28;;;;;;;7.72;6.00;;;;;;;7.45;38.59;102384.00;6071717;23;20182;-73
2023/03/01 11:14:18;;;;;;;3.60;2.95;;;;;;;7.43;39.52;102372.50;6071521;23;20174;-72
2023/03/01 11:17:05;;;;;;;3.70;2.88;;;;;;;7.18;39.42;102367.72;6075695;23;20263;-74
2023/03/01 11:19:39;;;;;;;5.18;4.18;;;;;;;7.01;39.50;102358.56;6079998;23;20169;-72
2023/03/01 11:22:19;;;;;;;3.08;2.60;;;;;;;7.12;39.42;102361.06;6080831;23;20165;-72
2023/03/01 11:24:54;;;;;;;5.55;2.65;;;;;;;7.19;39.73;102364.91;6078344;23;20177;-72
2023/03/01 11:27:45;;;;;;;3.25;2.55;;;;;;;7.29;39.40;102362.19;6071988;23;20276;-73
2023/03/01 11:30:26;;;;;;;2.50;2.22;;;;;;;7.22;38.41;102353.84;6110274;23;20178;-73
2023/03/01 11:33:20;;;;;;;2.72;2.53;;;;;;;7.55;38.63;102354.34;6103422;23;20494;-72
2023/03/01 11:35:57;;;;;;;4.43;3.30;;;;;;;7.74;38.21;102356.94;6110633;23;20173;-73
2023/03/01 11:38:34;;;;;;;7.82;3.15;;;;;;;7.61;37.81;102359.09;6108182;23;20213;-73
2023/03/01 11:41:13;;;;;;;6.05;2.85;;;;;;;7.80;37.59;102359.03;6108078;23;20188;-73
2023/03/01 11:43:50;;;;;;;4.40;3.00;;;;;;;7.54;38.10;102349.94;6108674;23;20154;-73
2023/03/01 11:46:53;;;;;;;5.13;2.95;;;;;;;7.82;37.54;102348.97;6104107;23;20690;-73
2023/03/01 11:49:53;;;;;;;5.10;3.20;;;;;;;7.93;36.35;102343.38;6081954;23;20245;-72
2023/03/01 11:52:39;;;;;;;5.47;3.03;;;;;;;7.62;36.67;102344.66;6103885;23;20180;-72
2023/03/01 11:55:37;;;;;;;5.22;2.85;;;;;;;7.93;36.90;102347.94;6103565;23;20178;-73
2023/03/01 11:58:38;;;;;;;4.90;3.05;;;;;;;7.93;36.80;102351.47;6109514;23;20581;-75
2023/03/01 12:01:28;;;;;;;3.20;2.65;;;;;;;7.86;36.24;102347.66;6081065;23;20245;-72
2023/03/01 12:04:43;;;;;;;4.30;2.90;;;;;;;7.76;36.78;102341.47;6101573;23;20177;-73
2023/03/01 12:07:23;;;;;;;4.25;2.35;;;;;;;7.91;36.99;102339.13;6104464;23;20197;-72
2023/03/01 12:10:21;;;;;;;9.30;3.50;;;;;;;8.04;37.35;102336.91;6101797;23;20190;-72
2023/03/01 12:13:12;;;;;;;6.93;3.15;;;;;;;8.05;37.96;102328.69;6099122;23;20204;-72
2023/03/01 12:16:11;;;;;;;4.40;3.15;;;;;;;7.86;37.61;102324.25;6097504;23;20178;-72
2023/03/01 12:19:11;;;;;;;4.15;2.65;;;;;;;7.87;38.21;102327.81;6092774;23;20491;-72
2023/03/01 12:21:59;;;;;;;5.18;3.30;;;;;;;7.80;38.26;102326.69;6075335;23;20615;-72